Time;durP1;ratioP1;P1;durP2;ratioP2;P2;SDS_P1;SDS_P2;PMS_P1;PMS_P2;Temp;Humidity;BMP_temperature;BMP_pressure;BME280_temperature;BME280_humidity;BME280_pressure;Samples;Min_cycle;Max_cycle;Signal;HPM_P1;HPM_P2
2023/05/31 00:00:23;;;;;;;17.45;11.68;;;;;;;;;;5114234;28;20062;-60
2023/05/31 00:02:50;;;;;;;19.50;10.75;;;;;;;;;;5114016;28;20116;-59
2023/05/31 00:05:16;;;;;;;12.55;9.93;;;;;;;;;;5114046;28;20047;-60
2023/05/31 00:07:43;;;;;;;17.33;11.40;;;;;;;;;;5112065;28;20055;-59
2023/05/31 00:10:11;;;;;;;14.27;10.65;;;;;;;;;;5110884;27;20044;-59
2023/05/31 00:12:38;;;;;;;15.63;10.93;;;;;;;;;;5113815;28;20047;-59
2023/05/31 00:15:06;;;;;;;14.65;11.07;;;;;;;;;;5113673;28;20051;-59
2023/05/31 00:17:33;;;;;;;14.40;11.15;;;;;;;;;;5113754;28;20727;-59
2023/05/31 00:19:59;;;;;;;13.95;10.50;;;;;;;;;;5113775;28;20059;-59
2023/05/31 00:22:31;;;;;;;15.30;10.98;;;;;;;;;;5113404;28;20052;-59
2023/05/31 00:24:58;;;;;;;18.25;11.35;;;;;;;;;;5107415;28;20114;-59
2023/05/31 00:27:26;;;;;;;13.70;10.27;;;;;;;;;;5093033;28;20048;-59
2023/05/31 00:29:53;;;;;;;15.60;10.15;;;;;;;;;;5093157;28;20059;-59
2023/05/31 00:32:19;;;;;;;15.07;10.68;;;;;;;;;;5093442;28;20051;-60
2023/05/31 00:34:46;;;;;;;15.57;10.50;;;;;;;;;;5093442;28;20059;-59
2023/05/31 00:37:13;;;;;;;14.68;10.43;;;;;;;;;;5093244;28;20048;-60
2023/05/31 00:39:40;;;;;;;16.85;12.02;;;;;;;;;;5094792;27;20062;-59
2023/05/31 00:42:11;;;;;;;15.63;11.07;;;;;;;;;;5093266;28;20056;-60
2023/05/31 00:44:39;;;;;;;16.08;11.43;;;;;;;;;;5093188;28;20056;-60
2023/05/31 00:47:07;;;;;;;15.85;10.63;;;;;;;;;;5093236;28;20051;-59
2023/05/31 00:49:34;;;;;;;18.20;10.63;;;;;;;;;;5093077;28;20052;-59
2023/05/31 00:52:01;;;;;;;14.88;10.38;;;;;;;;;;5092935;28;20048;-59
2023/05/31 00:54:28;;;;;;;13.93;10.02;;;;;;;;;;5097923;28;20415;-59
2023/05/31 00:56:58;;;;;;;13.65;10.50;;;;;;;;;;5093035;28;20044;-59
2023/05/31 00:59:25;;;;;;;16.75;10.95;;;;;;;;;;5093059;28;20051;-59
2023/05/31 01:01:55;;;;;;;17.10;11.25;;;;;;;;;;5092804;28;20484;-59
2023/05/31 01:04:22;;;;;;;15.85;11.43;;;;;;;;;;5092592;28;20052;-59
2023/05/31 01:06:51;;;;;;;15.60;11.32;;;;;;;;;;5113146;28;20048;-59
2023/05/31 01:09:18;;;;;;;14.70;10.48;;;;;;;;;;5111980;28;20052;-59
2023/05/31 01:12:00;;;;;;;14.48;10.10;;;;;;;;;;5110654;28;20055;-59
2023/05/31 01:14:30;;;;;;;15.77;10.48;;;;;;;;;;5110641;28;20047;-59
2023/05/31 01:17:03;;;;;;;14.90;10.15;;;;;;;;;;5113008;28;20040;-59
2023/05/31 01:19:37;;;;;;;15.60;11.18;;;;;;;;;;5113114;28;20068;-59
2023/05/31 01:22:14;;;;;;;14.93;10.52;;;;;;;;;;5113119;28;20507;-59
2023/05/31 01:24:45;;;;;;;13.73;9.85;;;;;;;;;;5112837;28;20051;-59
2023/05/31 01:27:16;;;;;;;11.90;9.35;;;;;;;;;;5092722;28;20385;-59
2023/05/31 01:29:43;;;;;;;12.45;9.85;;;;;;;;;;5092670;28;20480;-59
2023/05/31 01:32:13;;;;;;;13.35;9.55;;;;;;;;;;5095852;28;20058;-59
2023/05/31 01:34:40;;;;;;;11.25;8.95;;;;;;;;;;5113054;28;20058;-59
2023/05/31 01:37:07;;;;;;;12.98;9.70;;;;;;;;;;5113056;28;20055;-60
2023/05/31 01:39:33;;;;;;;12.88;9.68;;;;;;;;;;5112909;28;20058;-58
2023/05/31 01:42:00;;;;;;;11.85;10.07;;;;;;;;;;5100170;28;20048;-61
2023/05/31 01:44:29;;;;;;;14.13;9.77;;;;;;;;;;5096651;28;20063;-59
2023/05/31 01:46:56;;;;;;;12.40;9.57;;;;;;;;;;5096561;28;20499;-58
2023/05/31 01:49:23;;;;;;;13.40;9.60;;;;;;;;;;5096399;28;20062;-59
2023/05/31 01:51:50;;;;;;;11.98;10.00;;;;;;;;;;5096176;28;20060;-59
2023/05/31 01:54:17;;;;;;;12.80;9.48;;;;;;;;;;5095966;28;20062;-59
2023/05/31 01:56:46;;;;;;;15.55;10.65;;;;;;;;;;5116418;27;20051;-58
2023/05/31 01:59:13;;;;;;;12.23;9.35;;;;;;;;;;5116526;28;20059;-59
2023/05/31 02:01:41;;;;;;;12.13;9.40;;;;;;;;;;5116398;28;20058;-59
2023/05/31 02:04:08;;;;;;;14.35;9.93;;;;;;;;;;5116438;28;20052;-59
2023/05/31 02:06:36;;;;;;;13.95;9.02;;;;;;;;;;5115979;27;20070;-58
2023/05/31 02:09:03;;;;;;;12.32;9.02;;;;;;;;;;5115994;28;20058;-59
2023/05/31 02:11:30;;;;;;;12.20;9.48;;;;;;;;;;5114608;27;20056;-59
2023/05/31 02:13:57;;;;;;;12.60;9.23;;;;;;;;;;5116192;28;20573;-59
2023/05/31 02:16:24;;;;;;;14.32;9.90;;;;;;;;;;5116169;28;20047;-58
2023/05/31 02:18:52;;;;;;;13.57;9.50;;;;;;;;;;5115939;28;20054;-58
2023/05/31 02:21:19;;;;;;;13.55;10.27;;;;;;;;;;5116118;28;20051;-58
2023/05/31 02:23:46;;;;;;;12.77;9.70;;;;;;;;;;5116067;28;20396;-59
2023/05/31 02:26:12;;;;;;;12.75;9.07;;;;;;;;;;5115705;27;20058;-59
2023/05/31 02:28:40;;;;;;;13.93;10.32;;;;;;;;;;5115907;28;20052;-58
2023/05/31 02:31:06;;;;;;;12.43;9.45;;;;;;;;;;5115500;28;20052;-59
2023/05/31 02:33:33;;;;;;;11.88;9.20;;;;;;;;;;5115551;28;20047;-58
2023/05/31 02:36:02;;;;;;;12.05;9.52;;;;;;;;;;5115744;28;20056;-58
2023/05/31 02:38:29;;;;;;;13.00;9.40;;;;;;;;;;5115793;27;20052;-59
2023/05/31 02:40:56;;;;;;;11.48;8.55;;;;;;;;;;5114707;27;20051;-59
2023/05/31 02:43:22;;;;;;;11.93;9.00;;;;;;;;;;5115495;28;20055;-59
2023/05/31 02:45:50;;;;;;;12.98;8.40;;;;;;;;;;5115141;27;20058;-59
2023/05/31 02:48:17;;;;;;;11.35;8.82;;;;;;;;;;5115292;28;20044;-58
2023/05/31 02:50:44;;;;;;;10.40;8.30;;;;;;;;;;5115563;28;20416;-59
2023/05/31 02:53:12;;;;;;;12.38;9.35;;;;;;;;;;5115449;28;20051;-58
2023/05/31 02:55:39;;;;;;;11.65;9.02;;;;;;;;;;5114035;27;20125;-59
2023/05/31 02:58:06;;;;;;;11.85;8.93;;;;;;;;;;5115062;27;20048;-59
2023/05/31 03:00:33;;;;;;;12.38;8.57;;;;;;;;;;5115401;28;20051;-58
2023/05/31 03:02:59;;;;;;;12.93;8.93;;;;;;;;;;5114662;28;20062;-60
2023/05/31 03:05:29;;;;;;;13.93;9.60;;;;;;;;;;5115478;28;20385;-59
2023/05/31 03:07:55;;;;;;;13.68;9.27;;;;;;;;;;5114872;28;20407;-57
2023/05/31 03:10:23;;;;;;;13.43;9.65;;;;;;;;;;5112838;27;20050;-58
2023/05/31 03:12:50;;;;;;;14.90;9.60;;;;;;;;;;5099716;28;20409;-58
2023/05/31 03:15:17;;;;;;;12.25;9.70;;;;;;;;;;5094884;28;20060;-58
2023/05/31 03:17:44;;;;;;;13.60;9.13;;;;;;;;;;5094821;28;20409;-58
2023/05/31 03:20:11;;;;;;;16.17;10.30;;;;;;;;;;5094824;28;20048;-58
2023/05/31 03:22:38;;;;;;;11.88;9.25;;;;;;;;;;5094378;28;20056;-58
2023/05/31 03:25:06;;;;;;;13.45;8.98;;;;;;;;;;5100947;27;20055;-58
2023/05/31 03:27:34;;;;;;;11.88;9.18;;;;;;;;;;5114583;28;20043;-58
2023/05/31 03:30:01;;;;;;;15.48;9.70;;;;;;;;;;5114863;28;20498;-59
2023/05/31 03:32:28;;;;;;;12.43;9.55;;;;;;;;;;5114693;28;20052;-60
2023/05/31 03:34:55;;;;;;;15.57;10.15;;;;;;;;;;5113653;28;20056;-59
2023/05/31 03:37:21;;;;;;;13.75;10.02;;;;;;;;;;5114542;28;20506;-58
2023/05/31 03:39:48;;;;;;;11.65;8.55;;;;;;;;;;5113648;27;20051;-58
2023/05/31 03:42:15;;;;;;;12.60;9.63;;;;;;;;;;5093845;28;20492;-59
2023/05/31 03:44:43;;;;;;;11.93;9.32;;;;;;;;;;5094361;28;20056;-59
2023/05/31 03:47:10;;;;;;;13.50;9.85;;;;;;;;;;5093971;28;20048;-59
2023/05/31 03:49:37;;;;;;;15.15;11.52;;;;;;;;;;5094226;28;20059;-59
2023/05/31 03:52:04;;;;;;;13.80;10.02;;;;;;;;;;5094145;28;20055;-59
2023/05/31 03:54:31;;;;;;;13.75;9.13;;;;;;;;;;5094341;27;20409;-59
2023/05/31 03:56:58;;;;;;;16.33;9.60;;;;;;;;;;5114233;27;20055;-59
2023/05/31 03:59:25;;;;;;;14.45;9.27;;;;;;;;;;5114167;28;20055;-59
2023/05/31 04:01:53;;;;;;;11.95;8.80;;;;;;;;;;5114137;28;20059;-58
2023/05/31 04:04:20;;;;;;;13.50;9.20;;;;;;;;;;5113536;28;20043;-58
2023/05/31 04:06:47;;;;;;;14.45;8.73;;;;;;;;;;5113667;28;20056;-58
2023/05/31 04:09:13;;;;;;;12.98;8.90;;;;;;;;;;5112738;28;20392;-58
2023/05/31 04:11:40;;;;;;;11.95;8.02;;;;;;;;;;5112439;27;20055;-59
2023/05/31 04:14:07;;;;;;;11.73;8.32;;;;;;;;;;5113416;28;20047;-58
2023/05/31 04:16:34;;;;;;;11.88;9.10;;;;;;;;;;5113190;28;20051;-60
2023/05/31 04:19:02;;;;;;;11.18;8.35;;;;;;;;;;5113703;27;20047;-58
2023/05/31 04:21:29;;;;;;;13.57;9.02;;;;;;;;;;5113428;28;20059;-58
2023/05/31 04:23:56;;;;;;;12.90;10.15;;;;;;;;;;5098681;27;20067;-59
2023/05/31 04:26:23;;;;;;;11.52;8.82;;;;;;;;;;5114801;27;20075;-57
2023/05/31 04:28:51;;;;;;;14.20;10.15;;;;;;;;;;5113164;28;20043;-59
2023/05/31 04:31:18;;;;;;;12.38;9.77;;;;;;;;;;5113295;28;20054;-59
2023/05/31 04:33:45;;;;;;;12.43;8.65;;;;;;;;;;5113356;28;20476;-58
2023/05/31 04:36:13;;;;;;;13.50;9.73;;;;;;;;;;5113554;28;20051;-59
2023/05/31 04:38:40;;;;;;;14.18;10.43;;;;;;;;;;5112103;28;20054;-59
2023/05/31 04:41:07;;;;;;;12.70;8.48;;;;;;;;;;5113477;27;20048;-58
2023/05/31 04:43:34;;;;;;;15.05;10.73;;;;;;;;;;5110604;28;20389;-59
2023/05/31 04:46:00;;;;;;;15.25;10.98;;;;;;;;;;5105895;28;20048;-58
2023/05/31 04:48:28;;;;;;;12.80;9.60;;;;;;;;;;5108756;28;20121;-59
2023/05/31 04:50:56;;;;;;;12.88;10.30;;;;;;;;;;5113539;28;20051;-59
2023/05/31 04:53:24;;;;;;;14.90;9.75;;;;;;;;;;5113118;28;20054;-59
2023/05/31 04:55:52;;;;;;;12.90;10.48;;;;;;;;;;5114457;28;20051;-59
2023/05/31 04:58:19;;;;;;;14.45;10.00;;;;;;;;;;5113154;28;20071;-58
2023/05/31 05:00:46;;;;;;;16.00;11.15;;;;;;;;;;5112880;28;20062;-59
2023/05/31 05:03:13;;;;;;;16.77;12.65;;;;;;;;;;5113190;28;20058;-59
2023/05/31 05:05:40;;;;;;;16.15;11.57;;;;;;;;;;5112920;28;20055;-59
2023/05/31 05:08:07;;;;;;;19.13;13.30;;;;;;;;;;5112924;28;20067;-59
2023/05/31 05:10:35;;;;;;;16.95;12.13;;;;;;;;;;5109798;28;20066;-58
2023/05/31 05:13:02;;;;;;;15.48;12.18;;;;;;;;;;5107229;27;20048;-58
2023/05/31 05:15:29;;;;;;;16.67;13.25;;;;;;;;;;5105137;27;20403;-58
2023/05/31 05:17:55;;;;;;;16.30;12.02;;;;;;;;;;5106985;28;20504;-59
2023/05/31 05:20:23;;;;;;;17.02;11.80;;;;;;;;;;5112319;28;20055;-59
2023/05/31 05:22:53;;;;;;;16.67;12.30;;;;;;;;;;5113760;27;20138;-59
2023/05/31 05:25:20;;;;;;;18.52;13.32;;;;;;;;;;5111679;27;20507;-58
2023/05/31 05:27:48;;;;;;;17.48;13.23;;;;;;;;;;5116280;27;20070;-59
2023/05/31 05:30:15;;;;;;;17.33;12.20;;;;;;;;;;5112878;28;20484;-59
2023/05/31 05:32:42;;;;;;;16.17;12.95;;;;;;;;;;5115262;28;20051;-58
2023/05/31 05:35:09;;;;;;;16.52;11.57;;;;;;;;;;5115910;28;20059;-59
2023/05/31 05:37:36;;;;;;;17.17;12.57;;;;;;;;;;5115285;28;20055;-59
2023/05/31 05:40:06;;;;;;;14.10;11.73;;;;;;;;;;5115082;27;20400;-58
2023/05/31 05:42:36;;;;;;;20.67;12.02;;;;;;;;;;5110991;28;20048;-59
2023/05/31 05:45:06;;;;;;;15.80;11.98;;;;;;;;;;5115886;28;20059;-59
2023/05/31 05:47:33;;;;;;;16.88;11.93;;;;;;;;;;5101841;27;20052;-59
2023/05/31 05:50:00;;;;;;;20.08;12.30;;;;;;;;;;5095752;28;20396;-58
2023/05/31 05:52:27;;;;;;;19.33;12.73;;;;;;;;;;5096129;28;20059;-58
2023/05/31 05:54:54;;;;;;;16.30;12.75;;;;;;;;;;5113183;27;20059;-59
2023/05/31 05:57:21;;;;;;;17.17;12.70;;;;;;;;;;5116044;28;20059;-59
2023/05/31 05:59:49;;;;;;;14.77;11.13;;;;;;;;;;5116382;28;20047;-59
2023/05/31 06:02:17;;;;;;;14.70;10.02;;;;;;;;;;5115092;27;20055;-58
2023/05/31 06:04:44;;;;;;;13.35;9.38;;;;;;;;;;5116262;27;20044;-58
2023/05/31 06:07:11;;;;;;;13.68;9.25;;;;;;;;;;5115185;27;20063;-58
2023/05/31 06:09:38;;;;;;;12.95;9.18;;;;;;;;;;5114148;27;20066;-58
2023/05/31 06:12:06;;;;;;;14.98;8.90;;;;;;;;;;5112139;27;20051;-59
2023/05/31 06:14:33;;;;;;;12.75;8.18;;;;;;;;;;5114061;27;20396;-58
2023/05/31 06:17:00;;;;;;;11.10;7.65;;;;;;;;;;5115729;28;20051;-58
2023/05/31 06:19:28;;;;;;;10.93;7.57;;;;;;;;;;5115517;27;20404;-58
2023/05/31 06:21:57;;;;;;;12.10;8.07;;;;;;;;;;5115910;28;20052;-59
2023/05/31 06:24:24;;;;;;;10.98;7.80;;;;;;;;;;5118004;27;20047;-58
2023/05/31 06:26:51;;;;;;;11.23;7.88;;;;;;;;;;5115228;28;20047;-58
2023/05/31 06:29:17;;;;;;;11.32;7.72;;;;;;;;;;5111599;27;20051;-60
2023/05/31 06:31:44;;;;;;;11.68;8.13;;;;;;;;;;5115936;28;20486;-61
2023/05/31 06:34:11;;;;;;;8.90;7.25;;;;;;;;;;5105749;28;20055;-61
2023/05/31 06:36:44;;;;;;;10.80;7.90;;;;;;;;;;5108903;28;20054;-61
2023/05/31 06:39:11;;;;;;;12.30;7.55;;;;;;;;;;5106948;28;20044;-61
2023/05/31 06:41:38;;;;;;;10.40;7.47;;;;;;;;;;5107950;27;20067;-61
2023/05/31 06:44:05;;;;;;;12.80;8.05;;;;;;;;;;5105003;27;20070;-59
2023/05/31 06:46:32;;;;;;;10.75;7.68;;;;;;;;;;5105361;27;20055;-59
2023/05/31 06:48:59;;;;;;;14.43;8.82;;;;;;;;;;5107629;28;20062;-59
2023/05/31 06:51:26;;;;;;;12.25;8.20;;;;;;;;;;5104427;28;20054;-60
2023/05/31 06:53:54;;;;;;;12.85;7.95;;;;;;;;;;5107447;28;20071;-59
2023/05/31 06:56:21;;;;;;;12.75;7.80;;;;;;;;;;5107260;27;20063;-59
2023/05/31 06:58:48;;;;;;;10.85;7.85;;;;;;;;;;5103688;28;21204;-61
2023/05/31 07:01:15;;;;;;;10.77;7.90;;;;;;;;;;5100683;28;20047;-60
2023/05/31 07:03:41;;;;;;;11.02;7.78;;;;;;;;;;5107509;28;20426;-61
2023/05/31 07:06:08;;;;;;;10.82;7.90;;;;;;;;;;5108272;28;20055;-59
2023/05/31 07:08:35;;;;;;;9.35;7.70;;;;;;;;;;5107765;28;20043;-59
2023/05/31 07:11:03;;;;;;;13.38;7.75;;;;;;;;;;5104237;27;20047;-61
2023/05/31 07:13:31;;;;;;;10.95;8.27;;;;;;;;;;5108100;28;20052;-60
2023/05/31 07:15:58;;;;;;;10.15;7.80;;;;;;;;;;5108320;28;20063;-60
2023/05/31 07:18:24;;;;;;;9.73;7.40;;;;;;;;;;5107103;28;20055;-60
2023/05/31 07:20:56;;;;;;;9.95;7.22;;;;;;;;;;5106490;27;20467;-60
2023/05/31 07:23:23;;;;;;;10.63;7.47;;;;;;;;;;5096869;28;20059;-60
2023/05/31 07:25:50;;;;;;;9.30;7.90;;;;;;;;;;5107649;27;20071;-60
2023/05/31 07:28:18;;;;;;;10.93;8.45;;;;;;;;;;5102341;28;20055;-60
2023/05/31 07:30:45;;;;;;;10.63;8.25;;;;;;;;;;5105701;28;20082;-58
2023/05/31 07:33:12;;;;;;;14.73;9.20;;;;;;;;;;5107985;28;20411;-58
2023/05/31 07:35:39;;;;;;;14.20;8.60;;;;;;;;;;5106039;28;21514;-58
2023/05/31 07:38:06;;;;;;;10.13;8.07;;;;;;;;;;5106662;28;20048;-58
2023/05/31 07:40:32;;;;;;;9.93;7.97;;;;;;;;;;5104741;28;20054;-58
2023/05/31 07:42:59;;;;;;;11.90;8.02;;;;;;;;;;5106557;28;20056;-58
2023/05/31 07:45:28;;;;;;;10.52;7.60;;;;;;;;;;5105659;28;20395;-59
2023/05/31 07:47:54;;;;;;;9.18;8.13;;;;;;;;;;5096450;28;20056;-59
2023/05/31 07:50:21;;;;;;;9.40;7.40;;;;;;;;;;5099578;28;20048;-60
2023/05/31 07:52:49;;;;;;;12.23;7.68;;;;;;;;;;5103355;28;20621;-60
2023/05/31 07:55:17;;;;;;;12.23;7.35;;;;;;;;;;5103762;28;20456;-60
2023/05/31 07:57:44;;;;;;;18.48;7.22;;;;;;;;;;5094219;28;20058;-60
2023/05/31 08:00:13;;;;;;;9.75;6.72;;;;;;;;;;5103815;28;20044;-60
2023/05/31 08:02:41;;;;;;;10.57;7.28;;;;;;;;;;5104513;28;20052;-60
2023/05/31 08:05:08;;;;;;;9.85;6.35;;;;;;;;;;5103910;28;20062;-60
2023/05/31 08:07:35;;;;;;;9.35;6.35;;;;;;;;;;5106619;28;20051;-60
2023/05/31 08:10:03;;;;;;;10.70;6.57;;;;;;;;;;5104170;28;20047;-60
2023/05/31 08:12:30;;;;;;;8.13;6.30;;;;;;;;;;5107482;28;20062;-60
2023/05/31 08:14:57;;;;;;;7.82;6.03;;;;;;;;;;5103658;28;20048;-60
2023/05/31 08:17:24;;;;;;;7.22;6.07;;;;;;;;;;5105774;27;20488;-63
2023/05/31 08:19:52;;;;;;;7.78;5.97;;;;;;;;;;5104400;28;20067;-60
2023/05/31 08:22:19;;;;;;;8.18;5.85;;;;;;;;;;5103144;28;20054;-61
2023/05/31 08:24:46;;;;;;;7.50;5.85;;;;;;;;;;5102571;28;20047;-57
2023/05/31 08:27:13;;;;;;;6.53;5.38;;;;;;;;;;5106402;28;20502;-59
2023/05/31 08:29:39;;;;;;;7.43;5.45;;;;;;;;;;5105185;28;20051;-61
2023/05/31 08:32:06;;;;;;;7.00;5.07;;;;;;;;;;5105945;28;20400;-60
2023/05/31 08:34:33;;;;;;;11.23;5.47;;;;;;;;;;5106592;28;20056;-62
2023/05/31 08:37:01;;;;;;;8.05;5.30;;;;;;;;;;5102654;28;20057;-59
2023/05/31 08:39:29;;;;;;;6.30;4.75;;;;;;;;;;5102064;28;20056;-59
2023/05/31 08:42:00;;;;;;;7.38;5.65;;;;;;;;;;5101535;28;20048;-57
2023/05/31 08:44:27;;;;;;;6.82;5.05;;;;;;;;;;5104601;27;20051;-58
2023/05/31 08:46:55;;;;;;;7.20;5.10;;;;;;;;;;5103852;28;20077;-58
2023/05/31 08:49:22;;;;;;;7.43;5.03;;;;;;;;;;5097961;28;20055;-58
2023/05/31 08:51:49;;;;;;;5.65;4.88;;;;;;;;;;5105588;28;20059;-58
2023/05/31 08:54:18;;;;;;;7.53;4.80;;;;;;;;;;5102724;28;20055;-58
2023/05/31 08:56:47;;;;;;;5.70;4.93;;;;;;;;;;5106555;28;20052;-58
2023/05/31 08:59:17;;;;;;;6.00;4.93;;;;;;;;;;5103830;28;20066;-58
2023/05/31 09:01:44;;;;;;;6.80;4.32;;;;;;;;;;5103869;28;20059;-58
2023/05/31 09:04:11;;;;;;;9.63;4.47;;;;;;;;;;5102008;28;20051;-58
2023/05/31 09:06:38;;;;;;;7.45;4.18;;;;;;;;;;5100635;28;20044;-58
2023/05/31 09:09:08;;;;;;;6.00;4.53;;;;;;;;;;5107336;28;20777;-58
2023/05/31 09:11:40;;;;;;;6.40;4.18;;;;;;;;;;5104315;28;20055;-59
2023/05/31 09:14:08;;;;;;;7.03;4.20;;;;;;;;;;5101864;28;20051;-59
2023/05/31 09:16:35;;;;;;;5.68;4.22;;;;;;;;;;5098939;28;20491;-58
2023/05/31 09:19:03;;;;;;;4.87;3.80;;;;;;;;;;5105185;28;20075;-57
2023/05/31 09:21:29;;;;;;;;;;;;;;;;;;5104869;28;20063;-57
2023/05/31 09:23:57;;;;;;;5.72;3.58;;;;;;;;;;5106665;28;19920;-60
2023/05/31 09:26:25;;;;;;;5.97;3.30;;;;;;;;;;5105320;28;20052;-60
2023/05/31 09:28:51;;;;;;;;;;;;;;;;;;5101009;28;20530;-60
2023/05/31 09:31:20;;;;;;;5.15;3.65;;;;;;;;;;5104609;28;19928;-60
2023/05/31 09:33:48;;;;;;;5.57;3.33;;;;;;;;;;5101962;28;20496;-60
2023/05/31 09:36:23;;;;;;;5.72;3.70;;;;;;;;;;5103434;28;20059;-60
2023/05/31 09:38:50;;;;;;;5.60;3.58;;;;;;;;;;5104225;28;20496;-60
2023/05/31 09:41:18;;;;;;;5.32;3.72;;;;;;;;;;5100626;28;20039;-60
2023/05/31 09:43:45;;;;;;;4.20;3.03;;;;;;;;;;5105396;28;20484;-61
2023/05/31 09:46:13;;;;;;;5.70;3.60;;;;;;;;;;5100552;28;20058;-60
2023/05/31 09:48:39;;;;;;;;;;;;;;;;;;5103135;28;20058;-59
2023/05/31 09:51:11;;;;;;;4.57;2.90;;;;;;;;;;5107449;28;20284;-60
2023/05/31 09:53:39;;;;;;;8.68;3.35;;;;;;;;;;5105409;28;20055;-61
2023/05/31 09:56:09;;;;;;;5.32;2.90;;;;;;;;;;5103638;28;20055;-59
2023/05/31 09:58:36;;;;;;;3.83;2.78;;;;;;;;;;5105123;28;20532;-59
2023/05/31 10:01:03;;;;;;;5.18;2.90;;;;;;;;;;5102498;28;20044;-59
2023/05/31 10:03:30;;;;;;;5.50;2.85;;;;;;;;;;5108788;28;20415;-59
2023/05/31 10:05:57;;;;;;;5.15;3.22;;;;;;;;;;5106926;28;20047;-60
2023/05/31 10:08:27;;;;;;;6.28;3.13;;;;;;;;;;5110294;28;20483;-60
2023/05/31 10:10:55;;;;;;;3.08;2.42;;;;;;;;;;5110443;28;20407;-59
2023/05/31 10:13:23;;;;;;;6.03;2.65;;;;;;;;;;5111018;28;20070;-60
2023/05/31 10:15:51;;;;;;;4.05;2.38;;;;;;;;;;5108914;28;20771;-58
2023/05/31 10:18:20;;;;;;;4.22;2.60;;;;;;;;;;5110573;28;20066;-59
2023/05/31 10:20:53;;;;;;;4.72;2.58;;;;;;;;;;5106468;27;20051;-58
2023/05/31 10:23:21;;;;;;;4.32;2.25;;;;;;;;;;5110317;28;20427;-59
2023/05/31 10:25:51;;;;;;;5.43;2.50;;;;;;;;;;5109044;27;20056;-61
2023/05/31 10:28:20;;;;;;;5.32;2.60;;;;;;;;;;5099816;27;21677;-59
2023/05/31 10:30:47;;;;;;;6.05;2.40;;;;;;;;;;5110977;27;20058;-59
2023/05/31 10:33:15;;;;;;;4.45;2.28;;;;;;;;;;5108303;27;20435;-59
2023/05/31 10:35:42;;;;;;;5.60;2.40;;;;;;;;;;5112096;27;20511;-59
2023/05/31 10:38:09;;;;;;;6.45;2.95;;;;;;;;;;5108354;28;20055;-59
2023/05/31 10:40:38;;;;;;;4.18;2.17;;;;;;;;;;5110501;27;20047;-60
2023/05/31 10:43:09;;;;;;;3.53;2.30;;;;;;;;;;5106730;28;20082;-59
2023/05/31 10:45:38;;;;;;;2.95;2.10;;;;;;;;;;5111605;27;20063;-59
2023/05/31 10:48:10;;;;;;;3.42;2.03;;;;;;;;;;5106857;27;20051;-59
2023/05/31 10:50:51;;;;;;;2.92;1.90;;;;;;;;;;5108058;27;20051;-60
2023/05/31 10:53:19;;;;;;;4.78;1.92;;;;;;;;;;5106847;27;20067;-59
2023/05/31 10:55:47;;;;;;;5.18;2.42;;;;;;;;;;5108257;27;20055;-59
2023/05/31 10:58:29;;;;;;;3.90;2.50;;;;;;;;;;5094388;28;20048;-59
2023/05/31 11:00:56;;;;;;;3.92;2.30;;;;;;;;;;5110451;28;20051;-60
2023/05/31 11:03:23;;;;;;;;;;;;;;;;;;5094111;28;20415;-60
2023/05/31 11:05:56;;;;;;;3.63;2.03;;;;;;;;;;5107175;28;19928;-60
2023/05/31 11:08:23;;;;;;;3.10;2.00;;;;;;;;;;5095151;28;20056;-59
2023/05/31 11:10:50;;;;;;;3.53;1.88;;;;;;;;;;5101767;28;20052;-59
2023/05/31 11:13:17;;;;;;;4.35;2.28;;;;;;;;;;5108777;28;20058;-59
2023/05/31 11:15:46;;;;;;;3.78;2.25;;;;;;;;;;5108063;28;20047;-60
2023/05/31 11:18:17;;;;;;;3.60;2.33;;;;;;;;;;5099098;27;20052;-60
2023/05/31 11:20:44;;;;;;;4.32;2.30;;;;;;;;;;5104535;28;20499;-59
2023/05/31 11:23:27;;;;;;;5.43;2.35;;;;;;;;;;5104119;28;20503;-59
2023/05/31 11:26:10;;;;;;;7.95;2.60;;;;;;;;;;5113612;27;20047;-59
2023/05/31 11:28:59;;;;;;;3.65;1.88;;;;;;;;;;5110317;28;20396;-60
2023/05/31 11:31:44;;;;;;;3.35;2.00;;;;;;;;;;5094029;28;20050;-60
2023/05/31 11:34:23;;;;;;;3.50;2.20;;;;;;;;;;5101796;28;20056;-59
2023/05/31 11:36:50;;;;;;;5.30;2.42;;;;;;;;;;5099309;28;20054;-60
2023/05/31 11:39:17;;;;;;;3.85;1.80;;;;;;;;;;5105188;28;20058;-60
2023/05/31 11:41:44;;;;;;;4.10;2.80;;;;;;;;;;5104936;28;20048;-60
2023/05/31 11:44:11;;;;;;;4.03;1.88;;;;;;;;;;5104145;27;20082;-60
2023/05/31 11:46:40;;;;;;;4.22;2.17;;;;;;;;;;5106911;28;20803;-60
2023/05/31 11:49:09;;;;;;;6.60;6.10;;;;;;;;;;5099256;28;20055;-60
2023/05/31 11:51:38;;;;;;;3.92;2.30;;;;;;;;;;5106542;28;21288;-60
2023/05/31 11:54:05;;;;;;;3.47;2.22;;;;;;;;;;5103035;28;20059;-60
2023/05/31 11:56:32;;;;;;;5.35;2.38;;;;;;;;;;5101980;28;20063;-60
2023/05/31 11:58:59;;;;;;;3.40;1.90;;;;;;;;;;5102042;27;20082;-60
2023/05/31 12:01:29;;;;;;;3.28;2.03;;;;;;;;;;5102321;28;20051;-60
2023/05/31 12:03:59;;;;;;;4.03;1.90;;;;;;;;;;5106055;28;20586;-60
2023/05/31 12:06:26;;;;;;;4.00;2.22;;;;;;;;;;5106327;28;20160;-59
2023/05/31 12:08:55;;;;;;;4.70;2.30;;;;;;;;;;5102518;28;20052;-60
2023/05/31 12:11:22;;;;;;;4.95;2.30;;;;;;;;;;5099205;28;20077;-60
2023/05/31 12:13:49;;;;;;;5.72;1.83;;;;;;;;;;5103883;28;20063;-60
2023/05/31 12:16:16;;;;;;;4.65;1.80;;;;;;;;;;5104569;28;20062;-61
2023/05/31 12:18:42;;;;;;;3.60;1.90;;;;;;;;;;5106130;27;20052;-59
2023/05/31 12:21:11;;;;;;;4.18;2.10;;;;;;;;;;5107492;28;20058;-59
2023/05/31 12:23:55;;;;;;;3.72;1.98;;;;;;;;;;5102176;28;20051;-59
2023/05/31 12:26:23;;;;;;;2.67;1.80;;;;;;;;;;5103761;28;20055;-60
2023/05/31 12:28:50;;;;;;;4.90;1.98;;;;;;;;;;5105473;28;20055;-60
2023/05/31 12:31:20;;;;;;;5.28;2.17;;;;;;;;;;5106436;28;20125;-59
2023/05/31 12:33:51;;;;;;;2.88;1.83;;;;;;;;;;5104359;28;20055;-59
2023/05/31 12:36:18;;;;;;;4.15;1.95;;;;;;;;;;5097760;28;20416;-59
2023/05/31 12:38:45;;;;;;;3.95;2.08;;;;;;;;;;5103115;28;20048;-60
2023/05/31 12:41:13;;;;;;;4.20;2.10;;;;;;;;;;5100234;28;20047;-59
2023/05/31 12:43:40;;;;;;;3.25;2.17;;;;;;;;;;5098728;28;20055;-61
2023/05/31 12:46:07;;;;;;;3.88;1.85;;;;;;;;;;5098231;28;20059;-60
2023/05/31 12:48:34;;;;;;;3.17;1.70;;;;;;;;;;5100474;28;20058;-59
2023/05/31 12:51:01;;;;;;;3.10;1.87;;;;;;;;;;5105163;28;20400;-59
2023/05/31 12:53:28;;;;;;;3.08;2.20;;;;;;;;;;5102887;28;20048;-60
2023/05/31 12:55:54;;;;;;;7.28;2.30;;;;;;;;;;5106101;28;20056;-60
2023/05/31 12:58:23;;;;;;;3.70;1.95;;;;;;;;;;5103938;28;20059;-59
2023/05/31 13:00:50;;;;;;;3.63;1.85;;;;;;;;;;5105621;28;20499;-60
2023/05/31 13:03:17;;;;;;;3.05;2.00;;;;;;;;;;5104762;28;20054;-60
2023/05/31 13:05:44;;;;;;;4.97;2.20;;;;;;;;;;5101718;28;20059;-60
2023/05/31 13:08:11;;;;;;;4.20;2.20;;;;;;;;;;5097764;28;20047;-59
2023/05/31 13:10:37;;;;;;;4.85;2.03;;;;;;;;;;5101404;28;20062;-59
2023/05/31 13:13:05;;;;;;;4.45;2.30;;;;;;;;;;5105683;28;20051;-59
2023/05/31 13:15:33;;;;;;;4.45;2.22;;;;;;;;;;5101923;28;20067;-59
2023/05/31 13:18:00;;;;;;;11.82;3.28;;;;;;;;;;5103912;28;20419;-59
2023/05/31 13:20:26;;;;;;;4.97;2.08;;;;;;;;;;5105336;28;20055;-58
2023/05/31 13:22:53;;;;;;;4.05;2.05;;;;;;;;;;5104120;28;20056;-59
2023/05/31 13:25:20;;;;;;;5.78;2.38;;;;;;;;;;5103860;28;20469;-60
2023/05/31 13:27:47;;;;;;;3.58;2.00;;;;;;;;;;5105568;28;20058;-60
2023/05/31 13:30:14;;;;;;;5.07;2.50;;;;;;;;;;5108047;28;20055;-60
2023/05/31 13:32:42;;;;;;;6.22;2.50;;;;;;;;;;5115638;28;20043;-60
2023/05/31 13:35:09;;;;;;;5.50;2.35;;;;;;;;;;5113519;28;20059;-60
2023/05/31 13:37:36;;;;;;;4.65;2.63;;;;;;;;;;5106078;28;20063;-60
2023/05/31 13:40:04;;;;;;;5.95;2.40;;;;;;;;;;5129151;27;20066;-62
2023/05/31 13:42:30;;;;;;;6.37;2.20;;;;;;;;;;5128509;27;20371;-60
2023/05/31 13:44:57;;;;;;;3.88;2.20;;;;;;;;;;5130114;27;21064;-60
2023/05/31 13:47:27;;;;;;;4.97;2.60;;;;;;;;;;5128908;27;20047;-60
2023/05/31 13:49:55;;;;;;;6.13;2.53;;;;;;;;;;5130390;27;20047;-60
2023/05/31 13:52:22;;;;;;;6.13;2.20;;;;;;;;;;5126534;27;20047;-59
2023/05/31 13:54:49;;;;;;;4.75;2.38;;;;;;;;;;5129882;27;20070;-60
2023/05/31 13:57:16;;;;;;;5.55;2.40;;;;;;;;;;5128014;27;20054;-60
2023/05/31 13:59:42;;;;;;;4.20;2.38;;;;;;;;;;5129483;27;20532;-60
2023/05/31 14:02:09;;;;;;;6.45;2.47;;;;;;;;;;5124412;27;20043;-60
2023/05/31 14:04:36;;;;;;;4.28;2.42;;;;;;;;;;5130441;27;20050;-59
2023/05/31 14:07:05;;;;;;;4.70;2.28;;;;;;;;;;5128872;27;20047;-60
2023/05/31 14:09:32;;;;;;;3.58;1.98;;;;;;;;;;5126625;27;20069;-60
2023/05/31 14:11:59;;;;;;;4.82;2.33;;;;;;;;;;5126171;27;20055;-60
2023/05/31 14:14:26;;;;;;;6.47;2.13;;;;;;;;;;5128396;27;20059;-59
2023/05/31 14:16:53;;;;;;;3.78;1.95;;;;;;;;;;5126633;27;20518;-60
2023/05/31 14:19:20;;;;;;;5.10;2.10;;;;;;;;;;5122763;27;20043;-59
2023/05/31 14:21:47;;;;;;;4.57;2.20;;;;;;;;;;5124927;27;20066;-59
2023/05/31 14:24:15;;;;;;;5.55;2.15;;;;;;;;;;5128959;27;20055;-59
2023/05/31 14:26:42;;;;;;;4.03;1.90;;;;;;;;;;5123531;27;20062;-60
2023/05/31 14:29:09;;;;;;;4.22;1.80;;;;;;;;;;5124478;27;20072;-61
2023/05/31 14:31:37;;;;;;;5.63;2.33;;;;;;;;;;5125292;27;20055;-60
2023/05/31 14:34:03;;;;;;;4.28;2.03;;;;;;;;;;5127634;27;20047;-60
2023/05/31 14:36:31;;;;;;;3.55;2.03;;;;;;;;;;5118604;27;20337;-60